Time,TemperatureF,DewpointF,PressureIn,WindDirection,WindDirectionDegrees,WindSpeedMPH,WindSpeedGustMPH,Humidity,HourlyPrecipIn,Conditions,Clouds,dailyrainin,SoftwareType,DateUTC
2013-03-18 00:03:00,62.0,57.0,-100.00,North,354,5.0,8.0,85,0.00,,,0.00,,2013-03-18 10:03:00,
2013-03-18 00:12:00,62.0,57.0,-100.00,North,354,5.0,8.0,85,0.00,,,0.00,,2013-03-18 10:12:00,
2013-03-18 00:23:00,62.0,57.0,-100.00,North,354,5.0,8.0,85,0.00,,,0.00,,2013-03-18 10:23:00,
2013-03-18 00:33:00,62.0,57.0,-100.00,North,354,5.0,8.0,85,0.00,,,0.00,,2013-03-18 10:33:00,
2013-03-18 00:41:00,61.0,56.0,-100.00,North,9,4.0,7.0,84,0.00,,,0.00,,2013-03-18 10:41:00,
2013-03-18 01:03:00,61.0,56.0,-100.00,North,9,4.0,7.0,84,0.00,,,0.00,,2013-03-18 11:03:00,
2013-03-18 01:12:00,61.0,56.0,-100.00,North,9,4.0,7.0,84,0.00,,,0.00,,2013-03-18 11:12:00,
2013-03-18 01:22:00,61.0,56.0,-100.00,North,9,4.0,7.0,84,0.00,,,0.00,,2013-03-18 11:22:00,
2013-03-18 01:32:00,61.0,56.0,-100.00,North,9,4.0,7.0,84,0.00,,,0.00,,2013-03-18 11:32:00,
2013-03-18 01:41:00,60.0,55.0,-100.00,North,353,5.0,8.0,85,0.00,,,0.00,,2013-03-18 11:41:00,
2013-03-18 02:02:00,60.0,55.0,-100.00,North,353,5.0,8.0,85,0.00,,,0.00,,2013-03-18 12:02:00,
2013-03-18 02:12:00,60.0,55.0,-100.00,North,353,5.0,8.0,85,0.00,,,0.00,,2013-03-18 12:12:00,
2013-03-18 02:22:00,60.0,55.0,-100.00,North,353,5.0,8.0,85,0.00,,,0.00,,2013-03-18 12:22:00,
2013-03-18 02:32:00,60.0,55.0,-100.00,North,353,5.0,8.0,85,0.00,,,0.00,,2013-03-18 12:32:00,
2013-03-18 02:41:00,59.0,56.0,-100.00,North,353,6.0,9.0,89,0.00,,,0.00,,2013-03-18 12:41:00,
2013-03-18 03:02:00,59.0,56.0,-100.00,North,353,6.0,9.0,89,0.00,,,0.00,,2013-03-18 13:02:00,
2013-03-18 03:12:00,59.0,56.0,-100.00,North,353,6.0,9.0,89,0.00,,,0.00,,2013-03-18 13:12:00,
2013-03-18 03:22:00,59.0,56.0,-100.00,North,353,6.0,9.0,89,0.00,,,0.00,,2013-03-18 13:22:00,
2013-03-18 03:32:00,59.0,56.0,-100.00,North,353,6.0,9.0,89,0.00,,,0.00,,2013-03-18 13:32:00,
2013-03-18 03:41:00,60.0,56.0,-100.00,NNE,14,5.0,9.0,88,0.00,,,0.00,,2013-03-18 13:41:00,
2013-03-18 04:02:00,60.0,56.0,-100.00,NNE,14,5.0,9.0,88,0.00,,,0.00,,2013-03-18 14:02:00,
2013-03-18 04:12:00,60.0,56.0,-100.00,NNE,14,5.0,9.0,88,0.00,,,0.00,,2013-03-18 14:12:00,
2013-03-18 04:22:00,60.0,56.0,-100.00,NNE,14,5.0,9.0,88,0.00,,,0.00,,2013-03-18 14:22:00,
2013-03-18 04:32:00,60.0,56.0,-100.00,NNE,14,5.0,9.0,88,0.00,,,0.00,,2013-03-18 14:32:00,
2013-03-18 04:41:00,58.0,54.0,-100.00,North,8,5.0,8.0,88,0.00,,,0.00,,2013-03-18 14:41:00,
2013-03-18 05:02:00,58.0,54.0,-100.00,North,8,5.0,8.0,88,0.00,,,0.00,,2013-03-18 15:02:00,
2013-03-18 05:12:00,58.0,54.0,-100.00,North,8,5.0,8.0,88,0.00,,,0.00,,2013-03-18 15:12:00,
2013-03-18 05:22:00,58.0,54.0,-100.00,North,8,5.0,8.0,88,0.00,,,0.00,,2013-03-18 15:22:00,
2013-03-18 05:33:00,58.0,54.0,-100.00,North,8,5.0,8.0,88,0.00,,,0.00,,2013-03-18 15:33:00,
2013-03-18 05:41:00,58.0,54.0,-100.00,North,358,6.0,9.0,86,0.00,,,0.00,,2013-03-18 15:41:00,
2013-03-18 06:02:00,58.0,54.0,-100.00,North,358,6.0,9.0,86,0.00,,,0.00,,2013-03-18 16:02:00,
2013-03-18 06:12:00,58.0,54.0,-100.00,North,358,6.0,9.0,86,0.00,,,0.00,,2013-03-18 16:12:00,
2013-03-18 06:22:00,58.0,54.0,-100.00,North,358,6.0,9.0,86,0.00,,,0.00,,2013-03-18 16:22:00,
2013-03-18 06:32:00,58.0,54.0,-100.00,North,358,6.0,9.0,86,0.00,,,0.00,,2013-03-18 16:32:00,
2013-03-18 06:41:00,59.0,56.0,-100.00,North,356,5.0,8.0,89,0.00,,,-99.99,,2013-03-18 16:41:00,
2013-03-18 07:02:00,59.0,56.0,-100.00,North,356,5.0,8.0,89,0.00,,,-99.99,,2013-03-18 17:02:00,
2013-03-18 07:12:00,59.0,56.0,-100.00,North,356,5.0,8.0,89,0.00,,,-99.99,,2013-03-18 17:12:00,
2013-03-18 07:22:00,59.0,56.0,-100.00,North,356,5.0,8.0,89,0.00,,,-99.99,,2013-03-18 17:22:00,
2013-03-18 07:32:00,59.0,56.0,-100.00,North,356,5.0,8.0,89,0.00,,,-99.99,,2013-03-18 17:32:00,
2013-03-18 07:41:00,63.0,58.0,-100.00,North,359,5.0,8.0,84,0.00,,,0.00,,2013-03-18 17:41:00,
2013-03-18 08:02:00,63.0,58.0,-100.00,North,359,5.0,8.0,84,0.00,,,0.00,,2013-03-18 18:02:00,
2013-03-18 08:12:00,63.0,58.0,-100.00,North,359,5.0,8.0,84,0.00,,,0.00,,2013-03-18 18:12:00,
2013-03-18 08:22:00,63.0,58.0,-100.00,North,359,5.0,8.0,84,0.00,,,0.00,,2013-03-18 18:22:00,
2013-03-18 08:32:00,63.0,58.0,-100.00,North,359,5.0,8.0,84,0.00,,,0.00,,2013-03-18 18:32:00,
2013-03-18 08:41:00,71.0,62.0,-100.00,NE,50,2.0,7.0,72,0.00,,,0.00,,2013-03-18 18:41:00,
2013-03-18 09:02:00,71.0,62.0,-100.00,NE,50,2.0,7.0,72,0.00,,,0.00,,2013-03-18 19:02:00,
2013-03-18 09:12:00,71.0,62.0,-100.00,NE,50,2.0,7.0,72,0.00,,,0.00,,2013-03-18 19:12:00,
2013-03-18 09:22:00,71.0,62.0,-100.00,NE,50,2.0,7.0,72,0.00,,,0.00,,2013-03-18 19:22:00,
2013-03-18 09:32:00,71.0,62.0,-100.00,NE,50,2.0,7.0,72,0.00,,,0.00,,2013-03-18 19:32:00,
2013-03-18 09:41:00,74.0,59.0,-100.00,SW,221,4.0,6.0,60,0.00,,,0.00,,2013-03-18 19:41:00,
2013-03-18 10:02:00,74.0,59.0,-100.00,SW,221,4.0,6.0,60,0.00,,,0.00,,2013-03-18 20:02:00,
2013-03-18 10:12:00,74.0,59.0,-100.00,SW,221,4.0,6.0,60,0.00,,,0.00,,2013-03-18 20:12:00,
2013-03-18 10:22:00,74.0,59.0,-100.00,SW,221,4.0,6.0,60,0.00,,,0.00,,2013-03-18 20:22:00,
2013-03-18 10:32:00,74.0,59.0,-100.00,SW,221,4.0,6.0,60,0.00,,,0.00,,2013-03-18 20:32:00,
2013-03-18 10:41:00,75.0,55.0,-100.00,WSW,248,3.0,7.0,49,0.00,,,-99.99,,2013-03-18 20:41:00,
2013-03-18 11:02:00,75.0,55.0,-100.00,WSW,248,3.0,7.0,49,0.00,,,-99.99,,2013-03-18 21:02:00,
2013-03-18 11:11:00,75.0,55.0,-100.00,WSW,248,3.0,7.0,49,0.00,,,-99.99,,2013-03-18 21:11:00,
2013-03-18 11:22:00,75.0,55.0,-100.00,WSW,248,3.0,7.0,49,0.00,,,-99.99,,2013-03-18 21:22:00,
2013-03-18 11:32:00,75.0,55.0,-100.00,WSW,248,3.0,7.0,49,0.00,,,-99.99,,2013-03-18 21:32:00,
2013-03-18 11:41:00,76.0,51.0,-100.00,SW,225,4.0,7.0,42,0.00,,,0.00,,2013-03-18 21:41:00,
2013-03-18 12:03:00,76.0,51.0,-100.00,SW,225,4.0,7.0,42,0.00,,,0.00,,2013-03-18 22:03:00,
2013-03-18 12:12:00,76.0,51.0,-100.00,SW,225,4.0,7.0,42,0.00,,,0.00,,2013-03-18 22:12:00,
2013-03-18 12:22:00,76.0,51.0,-100.00,SW,225,4.0,7.0,42,0.00,,,0.00,,2013-03-18 22:22:00,
2013-03-18 12:32:00,76.0,51.0,-100.00,SW,225,4.0,7.0,42,0.00,,,0.00,,2013-03-18 22:32:00,
2013-03-18 12:41:00,75.0,55.0,-100.00,SSW,201,4.0,8.0,49,0.00,,,0.00,,2013-03-18 22:41:00,
2013-03-18 13:02:00,75.0,55.0,-100.00,SSW,201,4.0,8.0,49,0.00,,,0.00,,2013-03-18 23:02:00,
2013-03-18 13:12:00,75.0,55.0,-100.00,SSW,201,4.0,8.0,49,0.00,,,0.00,,2013-03-18 23:12:00,
2013-03-18 13:22:00,75.0,55.0,-100.00,SSW,201,4.0,8.0,49,0.00,,,0.00,,2013-03-18 23:22:00,
2013-03-18 13:32:00,75.0,55.0,-100.00,SSW,201,4.0,8.0,49,0.00,,,0.00,,2013-03-18 23:32:00,
2013-03-18 13:41:00,73.0,55.0,-100.00,North,4,6.0,10.0,53,0.00,,,0.00,,2013-03-18 23:41:00,
2013-03-18 14:02:00,73.0,55.0,-100.00,North,4,6.0,10.0,53,0.00,,,0.00,,2013-03-19 00:02:00,
2013-03-18 14:12:00,73.0,55.0,-100.00,North,4,6.0,10.0,53,0.00,,,0.00,,2013-03-19 00:12:00,
2013-03-18 14:22:00,73.0,55.0,-100.00,North,4,6.0,10.0,53,0.00,,,0.00,,2013-03-19 00:22:00,
2013-03-18 14:32:00,73.0,55.0,-100.00,North,4,6.0,10.0,53,0.00,,,0.00,,2013-03-19 00:32:00,
2013-03-18 14:41:00,76.0,58.0,-100.00,WSW,237,2.0,7.0,54,0.00,,,0.00,,2013-03-19 00:41:00,
2013-03-18 15:02:00,76.0,58.0,-100.00,WSW,237,2.0,7.0,54,0.00,,,0.00,,2013-03-19 01:02:00,
2013-03-18 15:12:00,76.0,58.0,-100.00,WSW,237,2.0,7.0,54,0.00,,,0.00,,2013-03-19 01:12:00,
2013-03-18 15:22:00,76.0,58.0,-100.00,WSW,237,2.0,7.0,54,0.00,,,0.00,,2013-03-19 01:22:00,
2013-03-18 15:32:00,76.0,58.0,-100.00,WSW,237,2.0,7.0,54,0.00,,,0.00,,2013-03-19 01:32:00,
2013-03-18 15:41:00,72.0,57.0,-100.00,South,184,4.0,10.0,59,0.00,,,0.00,,2013-03-19 01:41:00,
2013-03-18 16:02:00,72.0,57.0,-100.00,South,184,4.0,10.0,59,0.00,,,0.00,,2013-03-19 02:02:00,
2013-03-18 16:12:00,72.0,57.0,-100.00,South,184,4.0,10.0,59,0.00,,,0.00,,2013-03-19 02:12:00,
2013-03-18 16:22:00,72.0,57.0,-100.00,South,184,4.0,10.0,59,0.00,,,0.00,,2013-03-19 02:22:00,
2013-03-18 16:32:00,72.0,57.0,-100.00,South,184,4.0,10.0,59,0.00,,,0.00,,2013-03-19 02:32:00,
2013-03-18 16:41:00,72.0,57.0,-100.00,East,96,5.0,11.0,60,0.00,,,0.00,,2013-03-19 02:41:00,
2013-03-18 17:02:00,72.0,57.0,-100.00,East,96,5.0,11.0,60,0.00,,,0.00,,2013-03-19 03:02:00,
2013-03-18 17:12:00,72.0,57.0,-100.00,East,96,5.0,11.0,60,0.00,,,0.00,,2013-03-19 03:12:00,
2013-03-18 17:22:00,72.0,57.0,-100.00,East,96,5.0,11.0,60,0.00,,,0.00,,2013-03-19 03:22:00,
2013-03-18 17:32:00,72.0,57.0,-100.00,East,96,5.0,11.0,60,0.00,,,0.00,,2013-03-19 03:32:00,
2013-03-18 17:41:00,72.0,59.0,-100.00,NE,42,3.0,7.0,63,0.00,,,0.00,,2013-03-19 03:41:00,
2013-03-18 18:03:00,72.0,59.0,-100.00,NE,42,3.0,7.0,63,0.00,,,0.00,,2013-03-19 04:03:00,
2013-03-18 18:13:00,72.0,59.0,-100.00,NE,42,3.0,7.0,63,0.00,,,0.00,,2013-03-19 04:13:00,
2013-03-18 18:22:00,72.0,59.0,-100.00,NE,42,3.0,7.0,63,0.00,,,0.00,,2013-03-19 04:22:00,
2013-03-18 18:33:00,72.0,59.0,-100.00,NE,42,3.0,7.0,63,0.00,,,0.00,,2013-03-19 04:33:00,
2013-03-18 18:41:00,70.0,58.0,-100.00,NE,45,5.0,9.0,66,0.00,,,0.00,,2013-03-19 04:41:00,
2013-03-18 19:02:00,70.0,58.0,-100.00,NE,45,5.0,9.0,66,0.00,,,0.00,,2013-03-19 05:02:00,
2013-03-18 19:12:00,70.0,58.0,-100.00,NE,45,5.0,9.0,66,0.00,,,0.00,,2013-03-19 05:12:00,
2013-03-18 19:22:00,70.0,58.0,-100.00,NE,45,5.0,9.0,66,0.00,,,0.00,,2013-03-19 05:22:00,
2013-03-18 19:32:00,70.0,58.0,-100.00,NE,45,5.0,9.0,66,0.00,,,0.00,,2013-03-19 05:32:00,
2013-03-18 19:41:00,68.0,58.0,-100.00,NE,53,4.0,8.0,70,0.00,,,0.00,,2013-03-19 05:41:00,
2013-03-18 20:02:00,68.0,58.0,-100.00,NE,53,4.0,8.0,70,0.00,,,0.00,,2013-03-19 06:02:00,
2013-03-18 20:12:00,68.0,58.0,-100.00,NE,53,4.0,8.0,70,0.00,,,0.00,,2013-03-19 06:12:00,
2013-03-18 20:22:00,68.0,58.0,-100.00,NE,53,4.0,8.0,70,0.00,,,0.00,,2013-03-19 06:22:00,
2013-03-18 20:32:00,68.0,58.0,-100.00,NE,53,4.0,8.0,70,0.00,,,0.00,,2013-03-19 06:32:00,
2013-03-18 20:41:00,66.0,59.0,-100.00,North,357,3.0,9.0,77,0.00,,,0.00,,2013-03-19 06:41:00,
2013-03-18 21:02:00,66.0,59.0,-100.00,North,357,3.0,9.0,77,0.00,,,0.00,,2013-03-19 07:02:00,
2013-03-18 21:12:00,66.0,59.0,-100.00,North,357,3.0,9.0,77,0.00,,,0.00,,2013-03-19 07:12:00,
2013-03-18 21:21:00,66.0,59.0,-100.00,North,357,3.0,9.0,77,0.00,,,0.00,,2013-03-19 07:21:00,
2013-03-18 21:32:00,66.0,59.0,-100.00,North,357,3.0,9.0,77,0.00,,,0.00,,2013-03-19 07:32:00,
2013-03-18 21:41:00,64.0,58.0,-100.00,NNW,332,4.0,6.0,82,0.00,,,0.00,,2013-03-19 07:41:00,
2013-03-18 22:02:00,64.0,58.0,-100.00,NNW,332,4.0,6.0,82,0.00,,,0.00,,2013-03-19 08:02:00,
2013-03-18 22:12:00,64.0,58.0,-100.00,NNW,332,4.0,6.0,82,0.00,,,0.00,,2013-03-19 08:12:00,
2013-03-18 22:22:00,64.0,58.0,-100.00,NNW,332,4.0,6.0,82,0.00,,,0.00,,2013-03-19 08:22:00,
2013-03-18 22:32:00,64.0,58.0,-100.00,NNW,332,4.0,6.0,82,0.00,,,0.00,,2013-03-19 08:32:00,
2013-03-18 22:41:00,63.0,58.0,-100.00,North,3,5.0,7.0,83,0.00,,,0.00,,2013-03-19 08:41:00,
2013-03-18 23:02:00,63.0,58.0,-100.00,North,3,5.0,7.0,83,0.00,,,0.00,,2013-03-19 09:02:00,
2013-03-18 23:12:00,63.0,58.0,-100.00,North,3,5.0,7.0,83,0.00,,,0.00,,2013-03-19 09:12:00,
2013-03-18 23:22:00,63.0,58.0,-100.00,North,3,5.0,7.0,83,0.00,,,0.00,,2013-03-19 09:22:00,
2013-03-18 23:32:00,63.0,58.0,-100.00,North,3,5.0,7.0,83,0.00,,,0.00,,2013-03-19 09:32:00,
2013-03-18 23:41:00,63.0,58.0,-100.00,North,2,4.0,8.0,85,0.00,,,0.00,,2013-03-19 09:41:00,